Hovedside
METAR-TAF:

METAR-TAF

Lufthavner :

Ljungbyhed, Sverige

breddegrad: 56-04N, lengdegrad: 013-12E, høyde over havet: 43 m

Gjeldene værobservasjon

Denne rapporten ble laget for 39 minutter siden, klokken 09:20 UTC
Vind 13 kt fra Vest
Temperatur 16°C
Luftfuktighet 63%
Trykk 1012 hPa
Sikt 10 km eller mer
Få skyer i en høyde av 2500 ft
Brutte skyer i en høyde av 3000 ft

METAR: ESTL 190920Z 27013KT 9999 FEW025 BKN030 16/09 Q1012

Tid: 11:59 (09:59 UTC)

Varsel

Denne rapporten ble laget for 1 time og 55 minutter siden, klokken 08:04 UTC
Varsel gyldig fra 19. klokken 09 UTC til 19. klokken 15 UTC
Vind 13 kt fra Vest-nordvest
Sikt 10 km eller mer
Brutte skyer i en høyde av 3000 ft

TAF: ESTL 190804Z 1909/1915 29013KT 9999 BKN030

Værobservasjoner og værvarsel for over 4000 flyplasser (METAR- og TAF-rapporter).

Tilgjengelige stasjoner er representert av de røde og gule prikkene på kartet.

Hold musepekeren over prikken for å se navnet på stasjonen.

Klikk så for å se værobservasjoner og -varsler.

For å forandre kartet kan du klikke på den grønne knappen med svart kryss for å zoome inn, på den grønne knappen med strek for å zoome ut, eller på de grønne pilene for å se tilstøtende kart.


METAR-TAF: